All Spectrum Aviation - Van Nuys Airport - KVNY

HOME

Condor Squadron KVNY Webcam

Visit our Electronics Store

Condor Squadron Webcam - Van Nuys Airport - KVNY
Picture taken: Fri, 24 May 2019 12:28:23 -0700
YouTube Channel!    Latest Timelapse Movie    Full Size Image    Regular Size Image    

2019/05/24 18:51 KVNY 241851Z 15007KT 10SM CLR 22/09 A2995 RMK AO2 SLP137 T02220094

HOME

Condor Squadron KVNY Webcam

Visit our Electronics Store